Juanita, North Dakota
Current Conditions -  °F | °C
As of 5:35 PM on Monday 20 Oct 2014 (Local Time) from K46D Reporting Station
Clear Clear  
Wind Chill: 68°   Ceiling: Unl
Heat Index: 68°   Visibility: 10mi
Dew Point: 37°   Wind: 8mph
Humidity: 33%   Direction: 170°S
Pressure: 29.99"   Gusts: NA
Location:  47.4321°N, 98.6914°W
Report Text: K46D 202235Z AUTO 17007KT 10SM CLR 20/03 A2999 RMK AO2
Loading
Personal Weather Stations






























Interactive Weather Map
Tropical Storm Tracking
New forecast layout! Learn more

10-Day Weather Forecast

Advertisements
Track Severe Weather on mobile